Aviation Digital Data Service (ADDS)

Output produced by METARs form (1646 UTC 24 July 2014)
found at http://www.aviationweather.gov/adds/metars/
 
KESN 241545Z 02006KT 10SM OVC040 24/19 A2995